Time;durP1;ratioP1;P1;durP2;ratioP2;P2;SDS_P1;SDS_P2;PMS_P1;PMS_P2;Temp;Humidity;BMP_temperature;BMP_pressure;BME280_temperature;BME280_humidity;BME280_pressure;Samples;Min_cycle;Max_cycle;Signal;HPM_P1;HPM_P2
2023/01/25 00:01:41;;;;;;;53.60;33.88;;;;;;;;;;4436955;32;20052;-79
2023/01/25 00:04:06;;;;;;;;;;;;;;;;;;4437599;32;20079;-77
2023/01/25 00:06:32;;;;;;;50.67;32.85;;;;;;;;;;4437179;32;19957;-78
2023/01/25 00:08:57;;;;;;;;;;;;;;;;;;4435511;32;20485;-77
2023/01/25 00:11:22;;;;;;;50.22;31.70;;;;;;;;;;4436509;32;19933;-77
2023/01/25 00:13:47;;;;;;;;;;;;;;;;;;4437366;32;20148;-77
2023/01/25 00:16:12;;;;;;;56.47;34.42;;;;;;;;;;4437880;32;19936;-77
2023/01/25 00:18:37;;;;;;;;;;;;;;;;;;4439097;32;20056;-77
2023/01/25 00:21:16;;;;;;;52.10;33.28;;;;;;;;;;4439463;32;20313;-77
2023/01/25 00:23:41;;;;;;;50.38;33.10;;;;;;;;;;4453197;32;20129;-77
2023/01/25 00:26:06;;;;;;;;;;;;;;;;;;4454711;32;20132;-78
2023/01/25 00:28:32;;;;;;;49.86;32.20;;;;;;;;;;4455767;32;19937;-76
2023/01/25 00:30:57;;;;;;;;;;;;;;;;;;4438514;32;20060;-77
2023/01/25 00:33:38;;;;;;;54.90;34.20;;;;;;;;;;4451843;32;19969;-77
2023/01/25 00:36:22;;;;;;;49.88;32.35;;;;;;;;;;4437743;32;20113;-77
2023/01/25 00:38:47;;;;;;;49.70;31.67;;;;;;;;;;4438135;32;20367;-77
2023/01/25 00:41:12;;;;;;;;;;;;;;;;;;4453772;32;20112;-77
2023/01/25 00:43:37;;;;;;;51.25;31.20;;;;;;;;;;4451239;32;20286;-78
2023/01/25 00:46:02;;;;;;;;;;;;;;;;;;4437709;32;20164;-78
2023/01/25 00:48:28;;;;;;;53.50;32.20;;;;;;;;;;4451312;32;20309;-77
2023/01/25 00:50:53;;;;;;;;;;;;;;;;;;4437524;32;20116;-77
2023/01/25 00:53:18;;;;;;;54.30;33.08;;;;;;;;;;4434972;32;19976;-77
2023/01/25 00:55:43;;;;;;;;;;;;;;;;;;4451113;32;20112;-77
2023/01/25 00:58:08;;;;;;;60.45;31.85;;;;;;;;;;4451754;32;19943;-77
2023/01/25 01:00:33;;;;;;;56.05;34.40;;;;;;;;;;4451168;32;20018;-78
2023/01/25 01:02:59;;;;;;;58.17;35.40;;;;;;;;;;4437500;32;20054;-77
2023/01/25 01:05:24;;;;;;;;;;;;;;;;;;4438826;32;20026;-76
2023/01/25 01:07:49;;;;;;;51.95;31.25;;;;;;;;;;4429653;32;19941;-77
2023/01/25 01:10:14;;;;;;;58.90;36.10;;;;;;;;;;4456823;32;20051;-78
2023/01/25 01:12:39;;;;;;;;;;;;;;;;;;4459834;32;20046;-77
2023/01/25 01:15:06;;;;;;;56.67;33.35;;;;;;;;;;4460493;32;19941;-77
2023/01/25 01:17:31;;;;;;;56.30;33.90;;;;;;;;;;4454839;32;20143;-77
2023/01/25 01:19:56;;;;;;;;;;;;;;;;;;4452058;32;20536;-77
2023/01/25 01:22:21;;;;;;;56.05;34.42;;;;;;;;;;4451060;32;20077;-77
2023/01/25 01:24:47;;;;;;;;;;;;;;;;;;4437582;32;20155;-76
2023/01/25 01:27:12;;;;;;;56.58;33.13;;;;;;;;;;4436970;32;19942;-76
2023/01/25 01:29:37;;;;;;;57.72;33.92;;;;;;;;;;4438906;32;20140;-76
2023/01/25 01:32:02;;;;;;;;;;;;;;;;;;4453422;32;20438;-78
2023/01/25 01:34:27;;;;;;;57.80;34.08;;;;;;;;;;4458306;32;19955;-76
2023/01/25 01:36:53;;;;;;;54.28;33.60;;;;;;;;;;4444452;32;20029;-77
2023/01/25 01:39:18;;;;;;;56.72;32.92;;;;;;;;;;4455890;32;20042;-76
2023/01/25 01:41:43;;;;;;;56.60;34.55;;;;;;;;;;4456857;32;20052;-77
2023/01/25 01:44:08;;;;;;;;;;;;;;;;;;4430545;32;20351;-77
2023/01/25 01:46:36;;;;;;;60.12;35.78;;;;;;;;;;4455319;32;19944;-77
2023/01/25 01:49:04;;;;;;;59.20;34.85;;;;;;;;;;4454945;32;20124;-77
2023/01/25 01:51:38;;;;;;;55.58;32.13;;;;;;;;;;4456130;32;20082;-77
2023/01/25 01:54:09;;;;;;;54.88;32.60;;;;;;;;;;4456764;32;20103;-77
2023/01/25 01:56:36;;;;;;;56.37;33.08;;;;;;;;;;4444258;32;20073;-77
2023/01/25 01:59:03;;;;;;;58.42;33.83;;;;;;;;;;4440832;32;20089;-78
2023/01/25 02:01:28;;;;;;;56.35;33.55;;;;;;;;;;4455199;32;20052;-77
2023/01/25 02:03:53;;;;;;;;;;;;;;;;;;4454381;32;20046;-76
2023/01/25 02:06:25;;;;;;;55.82;33.72;;;;;;;;;;4453527;32;19965;-77
2023/01/25 02:08:51;;;;;;;59.55;34.85;;;;;;;;;;4439199;32;20025;-77
2023/01/25 02:11:18;;;;;;;59.17;34.15;;;;;;;;;;4453757;32;20089;-76
2023/01/25 02:13:43;;;;;;;53.50;32.47;;;;;;;;;;4454014;32;20398;-77
2023/01/25 02:16:08;;;;;;;;;;;;;;;;;;4453862;32;20086;-78
2023/01/25 02:18:33;;;;;;;60.28;34.90;;;;;;;;;;4454237;32;19951;-77
2023/01/25 02:20:58;;;;;;;;;;;;;;;;;;4454129;32;20150;-77
2023/01/25 02:23:28;;;;;;;58.28;32.75;;;;;;;;;;4453482;32;19955;-77
2023/01/25 02:25:59;;;;;;;57.97;34.45;;;;;;;;;;4453481;32;20101;-77
2023/01/25 02:28:30;;;;;;;56.80;33.00;;;;;;;;;;4454244;32;20029;-77
2023/01/25 02:30:55;;;;;;;59.70;33.88;;;;;;;;;;4453278;32;20033;-77
2023/01/25 02:33:20;;;;;;;;;;;;;;;;;;4453656;32;20051;-77
2023/01/25 02:35:48;;;;;;;56.35;32.38;;;;;;;;;;4453177;32;19936;-77
2023/01/25 02:38:15;;;;;;;55.25;32.30;;;;;;;;;;4453597;32;20124;-77
2023/01/25 02:40:45;;;;;;;61.10;34.72;;;;;;;;;;4452961;32;20089;-78
2023/01/25 02:43:11;;;;;;;57.62;33.05;;;;;;;;;;4452534;32;20057;-77
2023/01/25 02:45:36;;;;;;;;;;;;;;;;;;4454060;32;20025;-76
2023/01/25 02:48:01;;;;;;;56.33;31.15;;;;;;;;;;4439737;32;19941;-78
2023/01/25 02:50:26;;;;;;;;;;;;;;;;;;4439011;32;20160;-77
2023/01/25 02:52:51;;;;;;;54.03;31.48;;;;;;;;;;4453426;32;19969;-76
2023/01/25 02:55:16;;;;;;;;;;;;;;;;;;4453370;32;20307;-77
2023/01/25 02:57:42;;;;;;;58.08;32.95;;;;;;;;;;4438571;32;19960;-77
2023/01/25 03:00:07;;;;;;;;;;;;;;;;;;4439610;32;20160;-77
2023/01/25 03:02:32;;;;;;;60.25;34.33;;;;;;;;;;4453057;32;20296;-77
2023/01/25 03:04:57;;;;;;;;;;;;;;;;;;4453672;32;20026;-77
2023/01/25 03:07:22;;;;;;;65.65;33.78;;;;;;;;;;4438393;32;20310;-77
2023/01/25 03:09:47;;;;;;;;;;;;;;;;;;4452789;32;20125;-77
2023/01/25 03:12:13;;;;;;;61.28;33.50;;;;;;;;;;4438507;32;19932;-77
2023/01/25 03:14:38;;;;;;;;;;;;;;;;;;4438693;32;20125;-78
2023/01/25 03:17:03;;;;;;;56.92;34.65;;;;;;;;;;4439195;32;20000;-78
2023/01/25 03:19:28;;;;;;;;;;;;;;;;;;4439663;32;20128;-77
2023/01/25 03:21:53;;;;;;;60.05;34.40;;;;;;;;;;4439098;32;19936;-77
2023/01/25 03:24:18;;;;;;;;;;;;;;;;;;4454185;32;20188;-76
2023/01/25 03:29:28;;;;;;;67.10;36.97;;;;;;;;;;4452883;32;20175;-77
2023/01/25 03:31:53;;;;;;;;;;;;;;;;;;4438379;32;20029;-77
2023/01/25 03:34:19;;;;;;;62.67;36.13;;;;;;;;;;4437771;32;19971;-77
2023/01/25 03:36:44;;;;;;;64.53;34.83;;;;;;;;;;4451485;32;20071;-77
2023/01/25 03:39:09;;;;;;;;;;;;;;;;;;4444161;32;20029;-78
2023/01/25 03:41:34;;;;;;;67.82;35.63;;;;;;;;;;4432056;32;19998;-77
2023/01/25 03:43:59;;;;;;;;;;;;;;;;;;4436960;32;20473;-75
2023/01/25 03:46:25;;;;;;;62.20;34.97;;;;;;;;;;4437185;32;20299;-77
2023/01/25 03:48:50;;;;;;;;;;;;;;;;;;4436277;32;20157;-77
2023/01/25 03:51:15;;;;;;;71.65;35.05;;;;;;;;;;4437492;32;19959;-77
2023/01/25 03:53:40;;;;;;;;;;;;;;;;;;4437232;32;20396;-75
2023/01/25 03:56:07;;;;;;;64.28;34.38;;;;;;;;;;4443014;32;19956;-76
2023/01/25 03:58:33;;;;;;;64.57;35.90;;;;;;;;;;4452495;32;20119;-77
2023/01/25 04:00:58;;;;;;;;;;;;;;;;;;4452869;32;20091;-77
2023/01/25 04:03:24;;;;;;;68.60;35.88;;;;;;;;;;4438011;32;20333;-77
2023/01/25 04:05:49;;;;;;;;;;;;;;;;;;4452510;32;20125;-76
2023/01/25 04:08:14;;;;;;;62.15;34.53;;;;;;;;;;4437889;32;19933;-77
2023/01/25 04:10:40;;;;;;;73.10;38.22;;;;;;;;;;4445219;32;20111;-77
2023/01/25 04:13:05;;;;;;;78.60;38.90;;;;;;;;;;4431151;32;20407;-78
2023/01/25 04:15:30;;;;;;;73.53;40.85;;;;;;;;;;4452812;32;20021;-77
2023/01/25 04:17:56;;;;;;;71.25;40.45;;;;;;;;;;4437713;32;20022;-77
2023/01/25 04:20:21;;;;;;;69.47;38.67;;;;;;;;;;4451585;32;20051;-77
2023/01/25 04:22:46;;;;;;;69.43;36.92;;;;;;;;;;4452652;32;20074;-77
2023/01/25 04:25:12;;;;;;;68.25;36.85;;;;;;;;;;4437661;32;20047;-77
2023/01/25 04:27:37;;;;;;;74.72;39.78;;;;;;;;;;4437461;32;20069;-76
2023/01/25 04:30:02;;;;;;;;;;;;;;;;;;4452049;32;20025;-76
2023/01/25 04:32:27;;;;;;;82.20;38.15;;;;;;;;;;4452075;32;19976;-76
2023/01/25 04:34:52;;;;;;;;;;;;;;;;;;4452875;32;20577;-76
2023/01/25 04:37:18;;;;;;;68.68;37.75;;;;;;;;;;4455544;32;20003;-76
2023/01/25 04:39:43;;;;;;;;;;;;;;;;;;4440232;32;20165;-77
2023/01/25 04:42:08;;;;;;;70.25;37.72;;;;;;;;;;4443297;32;19987;-77
2023/01/25 04:44:33;;;;;;;;;;;;;;;;;;4456422;32;20124;-76
2023/01/25 04:46:58;;;;;;;75.53;39.85;;;;;;;;;;4441274;32;20038;-77
2023/01/25 04:49:23;;;;;;;;;;;;;;;;;;4453224;32;20525;-78
2023/01/25 04:51:48;;;;;;;73.90;39.17;;;;;;;;;;4454672;32;19988;-77
2023/01/25 04:54:16;;;;;;;;;;;;;;;;;;4453200;32;20518;-77
2023/01/25 04:56:41;;;;;;;;;;;;;;;;;;4450049;32;19941;-78
2023/01/25 04:59:07;;;;;;;70.28;38.15;;;;;;;;;;4436418;32;19976;-78
2023/01/25 05:01:32;;;;;;;;;;;;;;;;;;4437035;32;20557;-77
2023/01/25 05:03:57;;;;;;;77.70;39.88;;;;;;;;;;4435868;32;20376;-77
2023/01/25 05:06:22;;;;;;;;;;;;;;;;;;4423991;32;20427;-77
2023/01/25 05:08:48;;;;;;;81.70;43.10;;;;;;;;;;4426124;32;19991;-75
2023/01/25 05:11:13;;;;;;;83.75;42.20;;;;;;;;;;4425854;32;20345;-77
2023/01/25 05:13:38;;;;;;;80.22;41.67;;;;;;;;;;4453264;32;20030;-77
2023/01/25 05:16:03;;;;;;;78.57;41.58;;;;;;;;;;4441890;32;20052;-76
2023/01/25 05:18:29;;;;;;;80.15;41.22;;;;;;;;;;4455395;32;20441;-75
2023/01/25 05:20:55;;;;;;;87.78;43.17;;;;;;;;;;4455166;32;20052;-77
2023/01/25 05:23:20;;;;;;;;;;;;;;;;;;4454996;32;20059;-76
2023/01/25 05:28:29;;;;;;;79.53;38.88;;;;;;;;;;4441803;32;20147;-77
2023/01/25 05:30:54;;;;;;;;;;;;;;;;;;4439243;32;20026;-76
2023/01/25 05:33:19;;;;;;;75.65;39.10;;;;;;;;;;4438465;32;19941;-77
2023/01/25 05:35:44;;;;;;;;;;;;;;;;;;4438440;32;20128;-77
2023/01/25 05:38:10;;;;;;;84.10;38.92;;;;;;;;;;4424251;32;19955;-76
2023/01/25 05:40:35;;;;;;;;;;;;;;;;;;4438935;32;20151;-77
2023/01/25 05:43:00;;;;;;;77.55;37.92;;;;;;;;;;4424112;32;19945;-77
2023/01/25 05:45:25;;;;;;;;;;;;;;;;;;4438599;32;20143;-77
2023/01/25 05:47:51;;;;;;;82.10;40.53;;;;;;;;;;4425191;32;19937;-78
2023/01/25 05:50:16;;;;;;;79.55;41.22;;;;;;;;;;4424696;32;20407;-77
2023/01/25 05:52:41;;;;;;;80.07;40.95;;;;;;;;;;4439538;32;20060;-76
2023/01/25 05:55:06;;;;;;;;;;;;;;;;;;4425275;32;20072;-77
2023/01/25 05:57:32;;;;;;;79.72;40.36;;;;;;;;;;4424691;32;19951;-77
2023/01/25 05:59:57;;;;;;;78.10;37.33;;;;;;;;;;4438708;32;20121;-76
2023/01/25 06:02:22;;;;;;;74.80;39.35;;;;;;;;;;4438319;32;20447;-77
2023/01/25 06:04:47;;;;;;;;;;;;;;;;;;4439323;32;20104;-76
2023/01/25 06:07:12;;;;;;;74.65;38.05;;;;;;;;;;4424520;32;20292;-78
2023/01/25 06:09:37;;;;;;;;;;;;;;;;;;4438821;32;20552;-78
2023/01/25 06:12:04;;;;;;;71.94;37.84;;;;;;;;;;4424309;32;19941;-77
2023/01/25 06:14:30;;;;;;;73.85;39.90;;;;;;;;;;4423932;32;20018;-77
2023/01/25 06:16:55;;;;;;;;;;;;;;;;;;4439574;32;20150;-78
2023/01/25 06:19:20;;;;;;;72.78;36.05;;;;;;;;;;4438724;32;19937;-79
2023/01/25 06:21:45;;;;;;;;;;;;;;;;;;4424731;32;20159;-77
2023/01/25 06:24:10;;;;;;;77.07;39.15;;;;;;;;;;4438698;32;19944;-77
2023/01/25 06:26:36;;;;;;;80.32;40.50;;;;;;;;;;4438865;32;20018;-77
2023/01/25 06:29:03;;;;;;;78.22;39.10;;;;;;;;;;4438765;32;20022;-76
2023/01/25 06:31:28;;;;;;;76.37;38.72;;;;;;;;;;4440260;32;20178;-75
2023/01/25 06:33:53;;;;;;;;;;;;;;;;;;4438597;32;20025;-76
2023/01/25 06:36:19;;;;;;;78.90;42.05;;;;;;;;;;4447396;32;19959;-76
2023/01/25 06:38:52;;;;;;;81.35;41.08;;;;;;;;;;4448728;32;20030;-76
2023/01/25 06:41:17;;;;;;;87.60;44.05;;;;;;;;;;4455080;32;20392;-76
2023/01/25 06:43:43;;;;;;;;;;;;;;;;;;4439518;32;20021;-76
2023/01/25 06:46:10;;;;;;;80.68;41.88;;;;;;;;;;4452856;32;20085;-74
2023/01/25 06:48:35;;;;;;;86.85;42.25;;;;;;;;;;4452413;32;20116;-76
2023/01/25 06:51:01;;;;;;;;;;;;;;;;;;4439302;32;20097;-76
2023/01/25 06:53:26;;;;;;;78.30;37.70;;;;;;;;;;4454366;32;19977;-78
2023/01/25 06:55:51;;;;;;;;;;;;;;;;;;4438777;32;20165;-75
2023/01/25 06:58:17;;;;;;;84.40;41.78;;;;;;;;;;4449044;32;19937;-74
2023/01/25 07:00:42;;;;;;;;;;;;;;;;;;4438842;32;20169;-76
2023/01/25 07:03:07;;;;;;;76.47;40.58;;;;;;;;;;4439392;32;19951;-76
2023/01/25 07:05:32;;;;;;;;;;;;;;;;;;4453015;32;20203;-76
2023/01/25 07:07:57;;;;;;;85.28;40.80;;;;;;;;;;4437765;32;20015;-76
2023/01/25 07:10:22;;;;;;;;;;;;;;;;;;4437398;32;20124;-75
2023/01/25 07:12:48;;;;;;;81.70;41.80;;;;;;;;;;4437853;32;20294;-76
2023/01/25 07:15:13;;;;;;;;;;;;;;;;;;4423343;32;20188;-76
2023/01/25 07:17:38;;;;;;;85.58;41.30;;;;;;;;;;4424544;32;20081;-76
2023/01/25 07:20:03;;;;;;;74.55;39.92;;;;;;;;;;4437530;32;20022;-75
2023/01/25 07:22:28;;;;;;;83.95;41.47;;;;;;;;;;4423412;32;20033;-75
2023/01/25 07:24:56;;;;;;;83.43;42.88;;;;;;;;;;4438563;32;20126;-76
2023/01/25 07:27:21;;;;;;;80.10;41.75;;;;;;;;;;4436865;32;20151;-76
2023/01/25 07:29:46;;;;;;;;;;;;;;;;;;4437874;32;20492;-76
2023/01/25 07:32:13;;;;;;;86.82;41.67;;;;;;;;;;4425149;32;19940;-76
2023/01/25 07:34:38;;;;;;;80.85;42.10;;;;;;;;;;4436961;32;20098;-76
2023/01/25 07:37:03;;;;;;;;;;;;;;;;;;4423219;32;20085;-76
2023/01/25 07:39:28;;;;;;;84.05;43.42;;;;;;;;;;4442026;32;20027;-75
2023/01/25 07:41:53;;;;;;;;;;;;;;;;;;4453887;32;20137;-76
2023/01/25 07:44:18;;;;;;;78.05;40.65;;;;;;;;;;4437889;32;19984;-76
2023/01/25 07:46:44;;;;;;;;;;;;;;;;;;4453388;32;20161;-76
2023/01/25 07:49:09;;;;;;;83.38;42.02;;;;;;;;;;4453653;32;19933;-77
2023/01/25 07:51:34;;;;;;;;;;;;;;;;;;4454991;32;20029;-75
2023/01/25 07:54:00;;;;;;;88.50;41.80;;;;;;;;;;4454444;32;19936;-81
2023/01/25 07:56:39;;;;;;;80.72;38.95;;;;;;;;;;4459183;32;20074;-75
2023/01/25 07:59:07;;;;;;;87.50;42.60;;;;;;;;;;4453941;32;20048;-76
2023/01/25 08:01:33;;;;;;;81.07;41.13;;;;;;;;;;4438169;32;20017;-74
2023/01/25 08:03:58;;;;;;;79.57;41.37;;;;;;;;;;4436762;32;20120;-76
2023/01/25 08:06:26;;;;;;;;;;;;;;;;;;4438205;32;20029;-76
2023/01/25 08:08:51;;;;;;;84.97;42.20;;;;;;;;;;4452188;32;19973;-76
2023/01/25 08:11:19;;;;;;;81.22;40.78;;;;;;;;;;4449613;32;20403;-78
2023/01/25 08:13:48;;;;;;;80.70;41.20;;;;;;;;;;4425635;32;20044;-76
2023/01/25 08:16:14;;;;;;;81.03;41.80;;;;;;;;;;4437472;32;20025;-77
2023/01/25 08:18:39;;;;;;;;;;;;;;;;;;4452105;32;20051;-77
2023/01/25 08:21:05;;;;;;;78.37;39.97;;;;;;;;;;4446008;32;19996;-77
2023/01/25 08:23:30;;;;;;;;;;;;;;;;;;4444705;32;20146;-76
2023/01/25 08:26:00;;;;;;;77.90;39.42;;;;;;;;;;4452382;32;20369;-76
2023/01/25 08:28:25;;;;;;;78.87;42.38;;;;;;;;;;4453340;32;20026;-77
2023/01/25 08:30:50;;;;;;;;;;;;;;;;;;4439000;32;20397;-77
2023/01/25 08:33:15;;;;;;;84.48;43.58;;;;;;;;;;4452697;32;19940;-75
2023/01/25 08:35:40;;;;;;;84.05;41.85;;;;;;;;;;4452440;32;20358;-74
2023/01/25 08:38:06;;;;;;;85.50;42.90;;;;;;;;;;4438123;32;20025;-76
2023/01/25 08:40:31;;;;;;;;;;;;;;;;;;4452014;32;20052;-78
2023/01/25 08:42:56;;;;;;;87.18;43.98;;;;;;;;;;4452481;32;20330;-78
2023/01/25 08:45:21;;;;;;;;;;;;;;;;;;4452587;32;20402;-77
2023/01/25 08:47:46;;;;;;;88.60;42.50;;;;;;;;;;4451432;32;19971;-78
2023/01/25 08:50:11;;;;;;;;;;;;;;;;;;4451872;32;20139;-77
2023/01/25 08:52:37;;;;;;;85.85;44.15;;;;;;;;;;4435362;32;20361;-77
2023/01/25 08:55:02;;;;;;;;;;;;;;;;;;4434333;32;20033;-77
2023/01/25 08:57:27;;;;;;;81.78;41.65;;;;;;;;;;4435848;32;19983;-79
2023/01/25 08:59:52;;;;;;;;;;;;;;;;;;4438059;32;20129;-75
2023/01/25 09:02:20;;;;;;;84.28;42.92;;;;;;;;;;4451676;32;19948;-78
2023/01/25 09:04:45;;;;;;;84.55;42.25;;;;;;;;;;4437850;32;20155;-77
2023/01/25 09:07:10;;;;;;;;;;;;;;;;;;4452448;32;20025;-79
2023/01/25 09:09:36;;;;;;;82.25;41.37;;;;;;;;;;4437130;32;19936;-77
2023/01/25 09:12:01;;;;;;;;;;;;;;;;;;4453040;32;20140;-77
2023/01/25 09:14:26;;;;;;;88.66;45.16;;;;;;;;;;4438771;32;19971;-77
2023/01/25 09:16:51;;;;;;;;;;;;;;;;;;4451529;32;20397;-76
2023/01/25 09:19:16;;;;;;;88.46;44.50;;;;;;;;;;4437107;32;19992;-76
2023/01/25 09:21:41;;;;;;;92.32;45.60;;;;;;;;;;4437021;32;20029;-76
2023/01/25 09:24:06;;;;;;;;;;;;;;;;;;4452177;32;20144;-76
2023/01/25 09:26:33;;;;;;;95.95;46.22;;;;;;;;;;4438319;32;19937;-77
2023/01/25 09:28:58;;;;;;;98.18;48.53;;;;;;;;;;4452103;32;20178;-78
2023/01/25 09:31:23;;;;;;;;;;;;;;;;;;4451537;32;20026;-77
2023/01/25 09:33:49;;;;;;;98.75;47.38;;;;;;;;;;4437385;32;19947;-77
2023/01/25 09:36:14;;;;;;;;;;;;;;;;;;4451723;32;20124;-77
2023/01/25 09:38:39;;;;;;;90.05;44.53;;;;;;;;;;4451125;32;20408;-77
2023/01/25 09:41:04;;;;;;;;;;;;;;;;;;4438279;32;20121;-76
2023/01/25 09:43:53;;;;;;;98.18;47.03;;;;;;;;;;4451591;32;19936;-76
2023/01/25 09:46:25;;;;;;;96.35;47.28;;;;;;;;;;4438605;32;20120;-80
2023/01/25 09:48:59;;;;;;;98.62;49.83;;;;;;;;;;4436558;32;20047;-77
2023/01/25 09:51:47;;;;;;;97.37;47.47;;;;;;;;;;4451592;32;20042;-75
2023/01/25 09:54:15;;;;;;;95.30;45.53;;;;;;;;;;4442321;32;20033;-76
2023/01/25 09:56:40;;;;;;;97.75;47.92;;;;;;;;;;4440951;32;20320;-76
2023/01/25 09:59:05;;;;;;;;;;;;;;;;;;4433652;32;20104;-76
2023/01/25 10:01:39;;;;;;;87.12;41.05;;;;;;;;;;4439431;32;20239;-77
2023/01/25 10:04:09;;;;;;;101.15;48.92;;;;;;;;;;4427155;32;20121;-77
2023/01/25 10:06:36;;;;;;;93.97;46.65;;;;;;;;;;4426144;32;20026;-77
2023/01/25 10:09:07;;;;;;;101.78;48.38;;;;;;;;;;4447082;32;20037;-76
2023/01/25 10:11:32;;;;;;;92.12;46.42;;;;;;;;;;4455362;32;20009;-76
2023/01/25 10:13:57;;;;;;;;;;;;;;;;;;4454454;32;20057;-78
2023/01/25 10:16:26;;;;;;;95.25;44.70;;;;;;;;;;4455042;32;19941;-78
2023/01/25 10:19:10;;;;;;;96.30;46.55;;;;;;;;;;4444175;32;20132;-77
2023/01/25 10:21:39;;;;;;;88.30;45.40;;;;;;;;;;4439199;32;20025;-77
2023/01/25 10:24:23;;;;;;;93.75;45.47;;;;;;;;;;4438036;32;20022;-76
2023/01/25 10:26:55;;;;;;;95.07;44.90;;;;;;;;;;4437126;32;20094;-77
2023/01/25 10:29:24;;;;;;;92.00;45.08;;;;;;;;;;4451448;32;20021;-76
2023/01/25 10:31:53;;;;;;;95.85;46.85;;;;;;;;;;4454216;32;20074;-76
2023/01/25 10:34:25;;;;;;;99.05;47.70;;;;;;;;;;4443089;32;20089;-77
2023/01/25 10:36:54;;;;;;;97.50;46.97;;;;;;;;;;4438562;32;20067;-76
2023/01/25 10:39:20;;;;;;;92.22;45.83;;;;;;;;;;4439037;32;20026;-78
2023/01/25 10:41:45;;;;;;;;;;;;;;;;;;4424790;32;20045;-76
2023/01/25 10:44:23;;;;;;;94.10;44.92;;;;;;;;;;4449506;32;19941;-76
2023/01/25 10:46:59;;;;;;;98.30;48.00;;;;;;;;;;4454719;32;20064;-77
2023/01/25 10:49:43;;;;;;;94.03;46.40;;;;;;;;;;4453189;32;20045;-77
2023/01/25 10:52:12;;;;;;;101.15;48.55;;;;;;;;;;4456436;32;20077;-77
2023/01/25 10:54:37;;;;;;;103.12;50.90;;;;;;;;;;4450093;32;20018;-76
2023/01/25 10:57:02;;;;;;;;;;;;;;;;;;4434056;32;20045;-76
2023/01/25 10:59:28;;;;;;;98.24;46.36;;;;;;;;;;4446687;32;19964;-75
2023/01/25 11:01:53;;;;;;;;;;;;;;;;;;4447962;32;20029;-76
2023/01/25 11:04:34;;;;;;;101.36;46.76;;;;;;;;;;4443416;32;19944;-76
2023/01/25 11:07:01;;;;;;;100.55;48.65;;;;;;;;;;4437029;32;20349;-75
2023/01/25 11:09:29;;;;;;;105.75;47.95;;;;;;;;;;4425586;32;20029;-76
2023/01/25 11:11:55;;;;;;;99.57;46.42;;;;;;;;;;4440468;32;20101;-74
2023/01/25 11:14:20;;;;;;;;;;;;;;;;;;4440986;32;20367;-75
2023/01/25 11:16:49;;;;;;;94.90;44.92;;;;;;;;;;4425855;32;19937;-76
2023/01/25 11:19:23;;;;;;;107.37;47.40;;;;;;;;;;4425426;32;20117;-75
2023/01/25 11:21:53;;;;;;;95.53;46.05;;;;;;;;;;4449182;32;20017;-75
2023/01/25 11:24:18;;;;;;;92.62;46.15;;;;;;;;;;4439091;32;20076;-76
2023/01/25 11:26:44;;;;;;;;;;;;;;;;;;4438144;32;20344;-76
2023/01/25 11:29:19;;;;;;;101.20;49.22;;;;;;;;;;4425366;32;19936;-76
2023/01/25 11:31:56;;;;;;;111.30;51.37;;;;;;;;;;4440434;32;20033;-76
2023/01/25 11:34:25;;;;;;;98.75;46.30;;;;;;;;;;4437292;32;20120;-75
2023/01/25 11:36:56;;;;;;;105.78;49.03;;;;;;;;;;4437474;32;20047;-76
2023/01/25 11:39:33;;;;;;;96.53;45.80;;;;;;;;;;4437345;32;20052;-76
2023/01/25 11:42:01;;;;;;;99.40;46.05;;;;;;;;;;4436932;32;20107;-76
2023/01/25 11:44:41;;;;;;;99.03;49.95;;;;;;;;;;4423121;32;20097;-76
2023/01/25 11:47:17;;;;;;;100.55;50.40;;;;;;;;;;4437083;32;20077;-76
2023/01/25 11:49:45;;;;;;;102.70;48.47;;;;;;;;;;4423400;32;20029;-76
2023/01/25 11:52:20;;;;;;;103.97;50.72;;;;;;;;;;4453468;32;20036;-76
2023/01/25 11:55:03;;;;;;;112.18;52.00;;;;;;;;;;4452992;32;20017;-77
2023/01/25 11:57:35;;;;;;;102.78;50.58;;;;;;;;;;4438672;32;20462;-77
2023/01/25 12:00:19;;;;;;;103.30;49.88;;;;;;;;;;4453867;32;20070;-77
2023/01/25 12:02:50;;;;;;;106.90;51.17;;;;;;;;;;4453293;32;20025;-77
2023/01/25 12:05:15;;;;;;;103.10;49.88;;;;;;;;;;4452994;32;20029;-77
2023/01/25 12:07:40;;;;;;;;;;;;;;;;;;4441085;32;20021;-76
2023/01/25 12:10:05;;;;;;;104.25;47.92;;;;;;;;;;4453806;32;19941;-76
2023/01/25 12:12:31;;;;;;;;;;;;;;;;;;4438892;32;20176;-75
2023/01/25 12:14:56;;;;;;;103.07;50.65;;;;;;;;;;4437710;32;20319;-75
2023/01/25 12:17:21;;;;;;;;;;;;;;;;;;4452448;32;20151;-77
2023/01/25 12:19:46;;;;;;;121.65;52.67;;;;;;;;;;4438219;32;19992;-75
2023/01/25 12:22:13;;;;;;;115.37;52.47;;;;;;;;;;4452222;32;20037;-76
2023/01/25 12:24:57;;;;;;;109.55;51.22;;;;;;;;;;4439634;32;20180;-77
2023/01/25 12:27:41;;;;;;;112.18;51.35;;;;;;;;;;4440119;32;20044;-74
2023/01/25 12:30:22;;;;;;;107.05;48.47;;;;;;;;;;4423927;32;20030;-76
2023/01/25 12:32:48;;;;;;;104.90;50.47;;;;;;;;;;4424095;32;20395;-76
2023/01/25 12:35:20;;;;;;;114.25;51.55;;;;;;;;;;4421616;32;20104;-77
2023/01/25 12:37:45;;;;;;;111.00;53.67;;;;;;;;;;4436128;32;20054;-77
2023/01/25 12:40:10;;;;;;;;;;;;;;;;;;4422662;32;20014;-76
2023/01/25 12:42:56;;;;;;;114.90;51.42;;;;;;;;;;4435734;32;19941;-76
2023/01/25 12:45:24;;;;;;;115.88;50.10;;;;;;;;;;4421402;32;20159;-76
2023/01/25 12:48:08;;;;;;;112.45;49.17;;;;;;;;;;4435589;32;20041;-77
2023/01/25 12:50:41;;;;;;;104.55;48.63;;;;;;;;;;4427335;32;20055;-77
2023/01/25 12:53:16;;;;;;;101.00;46.03;;;;;;;;;;4452041;32;20037;-76
2023/01/25 12:55:42;;;;;;;110.63;49.33;;;;;;;;;;4452163;32;20025;-77
2023/01/25 12:58:07;;;;;;;;;;;;;;;;;;4438157;32;20048;-77
2023/01/25 13:00:36;;;;;;;106.85;47.42;;;;;;;;;;4451272;32;20267;-76
2023/01/25 13:03:20;;;;;;;112.40;47.83;;;;;;;;;;4435131;32;20128;-76
2023/01/25 13:05:50;;;;;;;118.95;49.47;;;;;;;;;;4442400;32;20120;-76
2023/01/25 13:08:34;;;;;;;107.87;48.38;;;;;;;;;;4438156;32;20325;-78
2023/01/25 13:11:06;;;;;;;110.78;52.22;;;;;;;;;;4452440;32;20029;-76
2023/01/25 13:13:32;;;;;;;107.28;50.83;;;;;;;;;;4438074;32;20085;-76
2023/01/25 13:16:17;;;;;;;105.03;48.38;;;;;;;;;;4451928;32;20043;-77
2023/01/25 13:18:44;;;;;;;109.32;46.97;;;;;;;;;;4452789;32;20052;-75
2023/01/25 13:21:10;;;;;;;102.78;49.38;;;;;;;;;;4443354;32;20090;-76
2023/01/25 13:23:42;;;;;;;101.35;47.58;;;;;;;;;;4433915;32;20482;-76
2023/01/25 13:26:20;;;;;;;104.70;49.08;;;;;;;;;;4437761;32;20022;-77
2023/01/25 13:28:45;;;;;;;102.97;47.47;;;;;;;;;;4441698;32;20021;-75
2023/01/25 13:31:10;;;;;;;;;;;;;;;;;;4455347;32;20100;-78
2023/01/25 13:33:35;;;;;;;112.62;50.17;;;;;;;;;;4456352;32;19946;-78
2023/01/25 13:36:20;;;;;;;106.20;49.17;;;;;;;;;;4441802;32;20037;-77
2023/01/25 13:38:45;;;;;;;108.28;47.10;;;;;;;;;;4439401;32;20105;-77
2023/01/25 13:41:11;;;;;;;;;;;;;;;;;;4454135;32;20082;-77
2023/01/25 13:43:37;;;;;;;109.55;48.83;;;;;;;;;;4446823;32;19937;-77
2023/01/25 13:46:03;;;;;;;106.30;48.50;;;;;;;;;;4439454;32;20029;-77
2023/01/25 13:48:30;;;;;;;113.85;48.00;;;;;;;;;;4426971;32;20069;-77
2023/01/25 13:51:03;;;;;;;100.53;48.08;;;;;;;;;;4441768;32;20094;-77
2023/01/25 13:53:34;;;;;;;104.00;48.35;;;;;;;;;;4428598;32;20065;-78
2023/01/25 13:56:02;;;;;;;107.50;46.67;;;;;;;;;;4433277;32;20037;-77
2023/01/25 13:58:27;;;;;;;101.10;45.33;;;;;;;;;;4460614;32;20084;-75
2023/01/25 14:00:52;;;;;;;;;;;;;;;;;;4454342;32;20029;-76
2023/01/25 14:03:18;;;;;;;94.57;44.88;;;;;;;;;;4429459;32;19964;-77
2023/01/25 14:05:43;;;;;;;;;;;;;;;;;;4443776;32;20129;-77
2023/01/25 14:08:09;;;;;;;100.57;43.93;;;;;;;;;;4428819;32;19940;-77
2023/01/25 14:10:34;;;;;;;;;;;;;;;;;;4439593;32;20026;-77
2023/01/25 14:12:59;;;;;;;89.45;41.33;;;;;;;;;;4438811;32;19948;-77
2023/01/25 14:15:24;;;;;;;;;;;;;;;;;;4443571;32;20120;-77
2023/01/25 14:18:22;;;;;;;92.65;40.83;;;;;;;;;;4453946;32;19932;-77
2023/01/25 14:20:53;;;;;;;99.78;45.60;;;;;;;;;;4396777;32;20124;-77
2023/01/25 14:23:29;;;;;;;100.75;44.95;;;;;;;;;;4439039;32;20094;-77
2023/01/25 14:25:57;;;;;;;92.50;44.35;;;;;;;;;;4440238;32;20025;-78
2023/01/25 14:28:22;;;;;;;90.30;42.58;;;;;;;;;;4452684;32;20060;-78
2023/01/25 14:30:47;;;;;;;;;;;;;;;;;;4439799;32;20073;-76
2023/01/25 14:33:19;;;;;;;93.70;43.67;;;;;;;;;;4439116;32;20041;-77
2023/01/25 14:35:45;;;;;;;103.18;45.80;;;;;;;;;;4438819;32;20149;-79
2023/01/25 14:38:20;;;;;;;92.65;42.97;;;;;;;;;;4452523;32;20443;-75
2023/01/25 14:40:45;;;;;;;100.72;47.55;;;;;;;;;;4452926;32;20030;-77
2023/01/25 14:43:11;;;;;;;;;;;;;;;;;;4439143;32;20048;-77
2023/01/25 14:45:36;;;;;;;101.72;46.78;;;;;;;;;;4433895;32;19981;-76
2023/01/25 14:48:01;;;;;;;103.40;44.85;;;;;;;;;;4452375;32;20024;-77
2023/01/25 14:50:30;;;;;;;99.65;47.10;;;;;;;;;;4452769;32;20030;-77
2023/01/25 14:52:56;;;;;;;94.07;44.17;;;;;;;;;;4436311;32;20085;-77
2023/01/25 14:55:21;;;;;;;;;;;;;;;;;;4440687;32;20037;-77
2023/01/25 14:57:52;;;;;;;97.95;43.13;;;;;;;;;;4439459;32;20273;-77
2023/01/25 15:00:26;;;;;;;93.72;45.25;;;;;;;;;;4453960;32;20121;-78